Time;durP1;ratioP1;P1;durP2;ratioP2;P2;SDS_P1;SDS_P2;PMS_P1;PMS_P2;Temp;Humidity;BMP_temperature;BMP_pressure;BME280_temperature;BME280_humidity;BME280_pressure;Samples;Min_cycle;Max_cycle;Signal;HPM_P1;HPM_P2
2022/05/15 00:02:55;;;;;;;22.17;7.82;;;;;;;13.31;74.46;101854.41;5265476;28;20126;-63
2022/05/15 00:05:27;;;;;;;20.25;7.80;;;;;;;13.25;75.13;101854.81;5266231;28;20037;-63
2022/05/15 00:07:58;;;;;;;26.48;8.15;;;;;;;13.11;77.56;101853.09;5267417;28;20434;-63
2022/05/15 00:10:30;;;;;;;22.38;8.00;;;;;;;13.06;79.39;101847.25;5268914;28;20525;-63
2022/05/15 00:13:02;;;;;;;19.00;8.02;;;;;;;13.01;78.94;101849.38;5264687;28;20497;-63
2022/05/15 00:15:34;;;;;;;22.20;8.23;;;;;;;13.04;80.72;101856.34;5265657;28;20024;-63
2022/05/15 00:18:06;;;;;;;23.75;8.57;;;;;;;12.99;80.19;101848.63;5266750;28;20043;-63
2022/05/15 00:20:39;;;;;;;19.45;7.45;;;;;;;13.07;77.84;101845.41;5268290;28;20060;-63
2022/05/15 00:23:11;;;;;;;20.08;7.97;;;;;;;13.02;77.36;101848.44;5264359;28;20039;-63
2022/05/15 00:25:43;;;;;;;21.70;7.93;;;;;;;12.93;78.37;101839.19;5266411;28;20508;-63
2022/05/15 00:28:14;;;;;;;19.90;7.45;;;;;;;12.93;79.47;101846.41;5268177;28;20103;-63
2022/05/15 00:30:46;;;;;;;22.83;7.70;;;;;;;12.88;78.69;101837.81;5264433;28;20071;-63
2022/05/15 00:33:18;;;;;;;21.40;7.38;;;;;;;12.89;78.46;101829.69;5266935;28;20063;-63
2022/05/15 00:35:50;;;;;;;20.27;7.45;;;;;;;12.81;80.36;101832.03;5263706;28;20565;-63
2022/05/15 00:38:21;;;;;;;23.98;7.50;;;;;;;12.66;80.56;101835.78;5260371;28;20513;-63
2022/05/15 00:40:53;;;;;;;23.75;8.00;;;;;;;12.67;81.07;101838.34;5260906;28;20039;-63
2022/05/15 00:43:46;;;;;;;22.77;6.82;;;;;;;12.61;77.82;101838.78;5261732;28;20036;-63
2022/05/15 00:46:28;;;;;;;23.38;7.28;;;;;;;12.58;81.18;101828.28;5266496;28;20032;-63
2022/05/15 00:49:02;;;;;;;22.38;7.47;;;;;;;12.48;80.33;101829.88;5267554;28;20613;-63
2022/05/15 00:51:36;;;;;;;20.20;7.30;;;;;;;12.51;81.21;101832.34;5266312;28;20032;-63
2022/05/15 00:54:32;;;;;;;19.20;7.07;;;;;;;12.45;81.07;101827.44;5267293;28;20064;-63
2022/05/15 00:57:08;;;;;;;25.92;7.53;;;;;;;12.39;78.49;101825.16;5268145;28;20020;-63
2022/05/15 00:59:45;;;;;;;20.77;7.53;;;;;;;12.29;79.43;101817.78;5268638;28;20142;-64
2022/05/15 01:02:18;;;;;;;28.30;8.55;;;;;;;12.31;82.68;101817.66;5264552;28;20038;-64
2022/05/15 01:04:50;;;;;;;17.05;7.13;;;;;;;12.30;82.41;101824.81;5264671;28;20043;-64
2022/05/15 01:07:21;;;;;;;21.35;7.95;;;;;;;12.20;83.03;101829.09;5265569;28;20216;-64
2022/05/15 01:09:53;;;;;;;22.20;8.30;;;;;;;12.28;82.47;101836.59;5266524;28;20024;-64
2022/05/15 01:12:25;;;;;;;21.17;8.20;;;;;;;12.08;82.99;101833.47;5266252;28;20028;-64
2022/05/15 01:14:57;;;;;;;19.52;7.82;;;;;;;12.10;83.39;101833.34;5263224;28;20039;-64
2022/05/15 01:17:28;;;;;;;24.55;7.65;;;;;;;12.04;84.20;101837.31;5262795;28;20028;-64
2022/05/15 01:20:06;;;;;;;21.27;8.02;;;;;;;12.07;83.41;101839.75;5267739;28;20048;-64
2022/05/15 01:22:37;;;;;;;22.10;8.38;;;;;;;11.96;83.53;101837.78;5263706;28;20124;-64
2022/05/15 01:25:16;;;;;;;17.70;8.10;;;;;;;12.01;83.77;101839.31;5266821;28;20120;-64
2022/05/15 01:28:03;;;;;;;21.55;7.10;;;;;;;11.92;83.62;101838.09;5265293;28;20059;-64
2022/05/15 01:30:38;;;;;;;19.48;7.25;;;;;;;11.80;84.53;101841.56;5273473;28;20020;-64
2022/05/15 01:33:10;;;;;;;23.80;8.57;;;;;;;11.85;85.86;101840.31;5274925;28;20169;-64
2022/05/15 01:35:41;;;;;;;22.60;8.23;;;;;;;11.70;83.46;101833.28;5274357;28;20024;-63
2022/05/15 01:38:13;;;;;;;25.70;8.52;;;;;;;11.72;84.24;101842.06;5274728;28;20028;-64
2022/05/15 01:40:47;;;;;;;24.38;8.20;;;;;;;11.82;84.40;101837.81;5271742;28;20162;-64
2022/05/15 01:43:18;;;;;;;21.95;8.02;;;;;;;11.76;86.60;101839.09;5276622;28;20050;-64
2022/05/15 01:45:50;;;;;;;20.25;7.22;;;;;;;11.65;86.14;101838.06;5273896;28;20114;-64
2022/05/15 01:48:21;;;;;;;20.90;8.70;;;;;;;11.64;84.22;101831.88;5274876;28;20402;-64
2022/05/15 01:50:53;;;;;;;26.38;8.77;;;;;;;11.67;85.92;101838.81;5271874;28;20020;-64
2022/05/15 01:53:24;;;;;;;21.30;7.15;;;;;;;11.63;87.10;101829.31;5275277;28;20024;-66
2022/05/15 01:55:56;;;;;;;24.27;8.27;;;;;;;11.52;84.71;101835.34;5276702;28;20028;-64
2022/05/15 01:58:27;;;;;;;21.95;8.13;;;;;;;11.50;86.83;101838.09;5271477;28;20810;-64
2022/05/15 02:00:58;;;;;;;20.80;7.70;;;;;;;11.41;87.27;101828.03;5269555;28;20112;-63
2022/05/15 02:03:30;;;;;;;23.05;7.88;;;;;;;11.43;85.95;101833.25;5270054;28;20083;-64
2022/05/15 02:06:02;;;;;;;19.23;7.25;;;;;;;11.38;86.06;101831.72;5272571;28;20028;-64
2022/05/15 02:08:35;;;;;;;21.35;7.80;;;;;;;11.32;86.16;101833.94;5269207;28;20417;-63
2022/05/15 02:11:06;;;;;;;21.13;7.63;;;;;;;11.27;87.52;101826.22;5267126;28;20044;-63
2022/05/15 02:13:38;;;;;;;22.65;8.38;;;;;;;11.25;87.74;101819.25;5271974;28;20067;-64
2022/05/15 02:16:09;;;;;;;25.48;8.52;;;;;;;11.28;88.62;101816.41;5274386;28;20074;-64
2022/05/15 02:18:41;;;;;;;19.13;7.70;;;;;;;11.21;87.15;101820.41;5271089;28;20052;-63
2022/05/15 02:21:13;;;;;;;22.55;9.15;;;;;;;11.15;87.67;101817.16;5271746;28;20030;-64
2022/05/15 02:23:44;;;;;;;23.13;7.97;;;;;;;11.17;88.16;101817.06;5272275;28;20082;-64
2022/05/15 02:26:15;;;;;;;20.55;7.65;;;;;;;11.03;87.85;101822.44;5271997;28;20561;-64
2022/05/15 02:28:47;;;;;;;25.50;7.55;;;;;;;11.01;86.43;101819.88;5268340;28;20033;-64
2022/05/15 02:31:18;;;;;;;21.00;7.28;;;;;;;11.03;87.16;101825.13;5267276;28;20028;-64
2022/05/15 02:33:50;;;;;;;20.80;7.78;;;;;;;10.96;86.14;101814.78;5272515;28;20054;-64
2022/05/15 02:36:21;;;;;;;24.42;7.53;;;;;;;11.06;88.71;101817.75;5272427;28;20025;-63
2022/05/15 02:38:52;;;;;;;22.48;7.28;;;;;;;11.03;87.39;101812.63;5275515;28;20021;-64
2022/05/15 02:41:24;;;;;;;24.80;7.80;;;;;;;10.97;89.49;101815.69;5265645;28;20391;-64
2022/05/15 02:43:55;;;;;;;19.42;7.70;;;;;;;11.00;88.39;101812.78;5270708;28;20036;-64
2022/05/15 02:46:26;;;;;;;20.92;7.30;;;;;;;10.98;89.86;101812.03;5269033;28;20039;-63
2022/05/15 02:51:48;;;;;;;21.77;8.55;;;;;;;10.90;89.63;101807.19;5265885;28;20028;-64
2022/05/15 02:54:19;;;;;;;26.63;7.82;;;;;;;10.95;89.80;101807.75;5272922;28;20032;-62
2022/05/15 02:56:51;;;;;;;23.90;7.45;;;;;;;10.89;89.46;101805.47;5267814;28;20028;-63
2022/05/15 02:59:22;;;;;;;22.95;7.18;;;;;;;10.70;89.37;101797.75;5269524;28;20078;-63
2022/05/15 03:01:53;;;;;;;22.80;7.38;;;;;;;10.82;88.75;101803.28;5266304;28;20028;-63
2022/05/15 03:04:25;;;;;;;25.08;7.28;;;;;;;10.75;90.13;101803.63;5272065;28;20024;-63
2022/05/15 03:06:56;;;;;;;21.90;7.60;;;;;;;10.69;90.37;101788.00;5269590;28;20029;-63
2022/05/15 03:09:27;;;;;;;20.38;7.32;;;;;;;10.66;90.28;101790.88;5269175;28;20205;-63
2022/05/15 03:11:58;;;;;;;21.52;7.53;;;;;;;10.70;89.58;101797.75;5264570;28;20063;-63
2022/05/15 03:14:30;;;;;;;21.92;7.35;;;;;;;10.67;90.43;101792.59;5269922;28;20028;-63
2022/05/15 03:17:02;;;;;;;22.75;7.30;;;;;;;10.64;90.19;101798.09;5269726;28;20058;-63
2022/05/15 03:19:33;;;;;;;26.55;7.07;;;;;;;10.67;89.02;101797.94;5267964;28;20076;-63
2022/05/15 03:22:04;;;;;;;23.35;7.78;;;;;;;10.67;90.65;101789.91;5268540;28;20028;-63
2022/05/15 03:24:35;;;;;;;24.10;7.05;;;;;;;10.58;89.48;101785.13;5269194;28;20829;-64
2022/05/15 03:27:07;;;;;;;25.90;7.30;;;;;;;10.54;88.55;101794.28;5271643;28;20047;-63
2022/05/15 03:29:38;;;;;;;21.23;7.22;;;;;;;10.63;89.46;101795.56;5268607;28;20145;-63
2022/05/15 03:32:09;;;;;;;24.77;7.50;;;;;;;10.56;90.83;101793.25;5268066;28;20028;-63
2022/05/15 03:34:41;;;;;;;22.60;7.93;;;;;;;10.54;89.97;101791.63;5270860;28;20078;-63
2022/05/15 03:37:12;;;;;;;25.45;7.78;;;;;;;10.34;88.99;101785.69;5270892;28;20024;-63
2022/05/15 03:39:43;;;;;;;25.15;8.40;;;;;;;10.41;91.19;101791.50;5266389;28;20032;-63
2022/05/15 03:42:14;;;;;;;22.65;7.22;;;;;;;10.44;90.00;101794.00;5267708;28;20044;-64
2022/05/15 03:44:46;;;;;;;23.67;7.97;;;;;;;10.33;91.38;101789.31;5267778;28;20033;-63
2022/05/15 03:47:17;;;;;;;26.13;8.50;;;;;;;10.48;90.89;101792.00;5267037;28;20059;-64
2022/05/15 03:49:49;;;;;;;24.65;8.50;;;;;;;10.42;91.16;101793.22;5270482;28;20032;-63
2022/05/15 03:52:21;;;;;;;25.83;8.18;;;;;;;10.27;90.05;101791.47;5267703;28;20040;-64
2022/05/15 03:54:52;;;;;;;22.02;7.75;;;;;;;10.33;91.38;101789.31;5268270;28;20028;-64
2022/05/15 03:57:24;;;;;;;27.05;8.68;;;;;;;10.29;91.62;101795.75;5269536;28;20055;-63
2022/05/15 03:59:55;;;;;;;27.95;8.50;;;;;;;10.33;91.90;101783.97;5265070;28;20094;-64
2022/05/15 04:02:26;;;;;;;21.73;7.93;;;;;;;10.35;92.69;101783.88;5269388;28;20028;-64
2022/05/15 04:04:58;;;;;;;27.40;8.00;;;;;;;10.27;93.16;101778.97;5270830;28;20040;-64
2022/05/15 04:07:29;;;;;;;20.50;8.18;;;;;;;10.29;92.36;101785.06;5264634;28;20060;-64
2022/05/15 04:10:00;;;;;;;22.55;8.52;;;;;;;10.35;93.02;101792.72;5269599;28;20433;-64
2022/05/15 04:12:31;;;;;;;31.63;8.65;;;;;;;10.24;93.22;101789.84;5266088;28;20068;-63
2022/05/15 04:15:03;;;;;;;21.13;8.43;;;;;;;10.25;93.93;101801.38;5264053;28;20107;-64
2022/05/15 04:17:45;;;;;;;21.52;7.95;;;;;;;10.18;93.11;101809.75;5266959;28;20028;-64
2022/05/15 04:20:22;;;;;;;19.58;8.30;;;;;;;10.20;94.73;101810.50;5264699;28;20063;-64
2022/05/15 04:22:53;;;;;;;25.33;8.38;;;;;;;10.12;93.08;101802.06;5267392;28;20028;-64
2022/05/15 04:25:24;;;;;;;24.35;8.60;;;;;;;10.26;94.49;101797.72;5269816;28;20033;-64
2022/05/15 04:27:56;;;;;;;22.30;7.68;;;;;;;10.11;94.08;101813.72;5264533;28;20036;-64
2022/05/15 04:30:28;;;;;;;24.77;8.88;;;;;;;10.16;94.25;101803.63;5266444;28;20458;-64
2022/05/15 04:32:59;;;;;;;23.45;7.72;;;;;;;10.14;93.64;101800.22;5263457;28;20479;-64
2022/05/15 04:35:30;;;;;;;28.77;9.10;;;;;;;10.26;95.33;101803.06;5261287;28;20694;-64
2022/05/15 04:38:02;;;;;;;23.95;8.43;;;;;;;10.24;94.57;101795.19;5266740;28;20024;-63
2022/05/15 04:40:33;;;;;;;20.33;7.70;;;;;;;10.32;95.46;101792.09;5267045;28;20494;-63
2022/05/15 04:43:04;;;;;;;24.58;8.63;;;;;;;10.38;96.33;101799.72;5261593;28;20036;-63
2022/05/15 04:45:36;;;;;;;23.13;8.60;;;;;;;10.27;96.76;101796.78;5260227;28;21555;-63
2022/05/15 04:48:11;;;;;;;24.63;8.15;;;;;;;10.28;96.36;101801.16;5262650;28;20032;-63
2022/05/15 04:50:42;;;;;;;18.73;7.57;;;;;;;10.29;93.88;101792.22;5266857;28;20109;-64
2022/05/15 04:53:14;;;;;;;28.05;7.85;;;;;;;10.42;94.59;101795.91;5269462;28;20119;-63
2022/05/15 04:55:45;;;;;;;26.65;8.70;;;;;;;10.44;96.54;101793.16;5266604;28;20032;-63
2022/05/15 04:58:16;;;;;;;21.90;8.20;;;;;;;10.34;93.85;101791.03;5266799;28;20032;-63
2022/05/15 05:00:49;;;;;;;23.63;9.05;;;;;;;10.51;94.05;101794.50;5268684;28;20142;-64
2022/05/15 05:03:20;;;;;;;22.52;8.48;;;;;;;10.53;95.69;101793.44;5270002;28;20032;-63
2022/05/15 05:05:52;;;;;;;29.40;8.95;;;;;;;10.50;95.50;101798.09;5266552;28;20024;-64
2022/05/15 05:08:24;;;;;;;26.58;8.57;;;;;;;10.51;93.88;101797.16;5270190;28;20455;-63
2022/05/15 05:10:55;;;;;;;25.08;7.90;;;;;;;10.47;93.06;101799.16;5269288;28;20039;-63
2022/05/15 05:13:26;;;;;;;25.48;9.07;;;;;;;10.50;92.00;101806.09;5264166;28;20037;-63
2022/05/15 05:15:57;;;;;;;23.67;8.18;;;;;;;10.67;95.51;101805.09;5266678;28;20433;-64
2022/05/15 05:18:28;;;;;;;22.27;8.27;;;;;;;10.66;93.82;101806.91;5264074;28;20044;-64
2022/05/15 05:21:00;;;;;;;25.73;8.18;;;;;;;10.70;96.69;101804.88;5268213;28;20041;-64
2022/05/15 05:23:31;;;;;;;21.70;8.65;;;;;;;10.66;93.59;101812.25;5268659;28;20032;-63
2022/05/15 05:26:03;;;;;;;21.80;8.32;;;;;;;10.76;92.43;101804.53;5264957;28;20540;-64
2022/05/15 05:28:34;;;;;;;20.45;8.43;;;;;;;10.82;94.17;101809.47;5268425;28;20074;-64
2022/05/15 05:31:06;;;;;;;19.45;9.20;;;;;;;10.88;96.23;101802.91;5265774;28;20115;-64
2022/05/15 05:33:37;;;;;;;21.25;8.90;;;;;;;10.81;96.05;101801.56;5267063;28;20028;-64
2022/05/15 05:36:10;;;;;;;21.98;8.52;;;;;;;10.90;95.56;101806.31;5267582;28;20036;-64
2022/05/15 05:38:41;;;;;;;24.55;9.40;;;;;;;10.91;96.15;101800.91;5263609;28;20836;-65
2022/05/15 05:41:12;;;;;;;29.00;9.02;;;;;;;10.97;95.77;101808.50;5268683;28;20029;-63
2022/05/15 05:43:43;;;;;;;22.40;8.38;;;;;;;11.02;95.34;101804.69;5267253;28;20036;-63
2022/05/15 05:46:15;;;;;;;24.27;8.88;;;;;;;11.12;94.52;101800.47;5265312;28;20032;-63
2022/05/15 05:48:46;;;;;;;25.00;9.70;;;;;;;11.11;92.88;101807.63;5265162;28;20039;-64
2022/05/15 05:51:17;;;;;;;22.05;9.82;;;;;;;11.21;94.63;101801.72;5264888;28;20394;-63
2022/05/15 05:53:49;;;;;;;26.75;10.18;;;;;;;11.29;92.05;101807.41;5269679;28;20033;-63
2022/05/15 05:56:20;;;;;;;26.55;10.02;;;;;;;11.35;92.10;101807.00;5265757;28;20036;-65
2022/05/15 05:58:51;;;;;;;21.25;10.13;;;;;;;11.34;95.78;101805.31;5264212;28;20028;-64
2022/05/15 06:01:23;;;;;;;21.13;10.15;;;;;;;11.46;93.31;101806.34;5265975;28;20391;-63
2022/05/15 06:06:44;;;;;;;23.98;10.13;;;;;;;11.61;92.06;101812.50;5265794;28;20139;-63
2022/05/15 06:09:15;;;;;;;20.08;9.60;;;;;;;11.65;92.81;101809.50;5268572;28;20032;-64
2022/05/15 06:11:46;;;;;;;26.95;10.30;;;;;;;11.72;91.40;101805.50;5265420;28;20109;-64
2022/05/15 06:14:18;;;;;;;27.52;10.35;;;;;;;11.85;91.55;101805.53;5270177;28;20028;-64
2022/05/15 06:16:49;;;;;;;20.38;9.73;;;;;;;11.90;93.61;101802.59;5261329;28;20269;-63
2022/05/15 06:19:20;;;;;;;21.30;10.27;;;;;;;11.99;91.31;101795.78;5263996;28;20051;-64
2022/05/15 06:21:51;;;;;;;20.38;9.95;;;;;;;12.19;90.07;101800.59;5265357;28;20024;-64
2022/05/15 06:24:23;;;;;;;24.75;10.65;;;;;;;12.25;91.06;101800.19;5265650;28;20066;-64
2022/05/15 06:26:58;;;;;;;24.23;11.60;;;;;;;12.41;90.79;101802.69;5269571;28;20032;-64
2022/05/15 06:29:30;;;;;;;24.15;11.85;;;;;;;12.58;89.77;101801.53;5271728;28;20608;-64
2022/05/15 06:32:02;;;;;;;27.70;11.05;;;;;;;12.65;88.46;101800.09;5277677;28;21319;-64
2022/05/15 06:34:33;;;;;;;24.25;10.82;;;;;;;12.74;87.36;101791.44;5267334;28;20500;-65
2022/05/15 06:37:05;;;;;;;22.98;11.25;;;;;;;12.90;86.45;101806.41;5264420;28;20382;-66
2022/05/15 06:39:36;;;;;;;23.40;10.93;;;;;;;13.07;86.78;101794.50;5266181;28;20867;-65
2022/05/15 06:42:08;;;;;;;20.92;11.20;;;;;;;13.22;86.20;101797.91;5263827;28;20028;-65
2022/05/15 06:44:39;;;;;;;22.95;11.70;;;;;;;13.26;86.82;101800.25;5266604;28;20123;-66
2022/05/15 06:47:10;;;;;;;27.55;10.77;;;;;;;13.44;84.52;101795.41;5264875;28;20039;-65
2022/05/15 06:49:42;;;;;;;19.90;10.45;;;;;;;13.63;84.45;101794.03;5263716;28;20651;-65
2022/05/15 06:52:13;;;;;;;21.02;11.10;;;;;;;13.79;84.99;101801.78;5263134;28;20024;-66
2022/05/15 06:54:44;;;;;;;19.73;10.80;;;;;;;13.94;84.97;101797.97;5262183;28;20060;-65
2022/05/15 06:57:28;;;;;;;22.42;11.00;;;;;;;14.11;83.48;101797.53;5262270;28;20398;-63
2022/05/15 07:00:11;;;;;;;26.10;11.57;;;;;;;14.12;82.15;101804.59;5268052;28;20040;-63
2022/05/15 07:02:42;;;;;;;20.75;11.30;;;;;;;14.45;80.95;101791.41;5260768;28;20040;-63
2022/05/15 07:05:20;;;;;;;20.42;10.35;;;;;;;14.61;80.98;101794.63;5261860;28;20051;-63
2022/05/15 07:07:54;;;;;;;18.90;10.45;;;;;;;14.73;79.69;101802.69;5262154;28;20845;-63
2022/05/15 07:10:25;;;;;;;21.63;10.48;;;;;;;14.93;77.75;101810.03;5264679;28;20394;-63
2022/05/15 07:12:57;;;;;;;19.77;10.00;;;;;;;15.03;77.80;101805.66;5262797;28;20052;-63
2022/05/15 07:15:29;;;;;;;21.30;10.73;;;;;;;15.07;80.08;101808.91;5271242;28;20024;-63
2022/05/15 07:18:00;;;;;;;17.10;10.05;;;;;;;15.25;78.33;101809.28;5262354;28;21353;-63
2022/05/15 07:20:32;;;;;;;20.40;10.38;;;;;;;15.44;76.25;101819.41;5271492;28;20036;-65
2022/05/15 07:23:05;;;;;;;19.52;10.57;;;;;;;15.54;74.96;101819.50;5272776;28;20044;-65
2022/05/15 07:25:36;;;;;;;20.05;9.77;;;;;;;15.64;76.93;101818.59;5269945;28;20047;-65
2022/05/15 07:28:07;;;;;;;20.08;9.48;;;;;;;15.75;76.55;101817.75;5272376;28;20490;-63
2022/05/15 07:30:39;;;;;;;20.13;9.50;;;;;;;16.10;74.74;101816.63;5272416;28;20529;-63
2022/05/15 07:33:10;;;;;;;20.23;9.85;;;;;;;16.06;75.43;101813.34;5268811;28;20702;-63
2022/05/15 07:35:41;;;;;;;17.58;9.50;;;;;;;16.26;72.59;101803.59;5268473;28;20367;-64
2022/05/15 07:38:13;;;;;;;21.90;9.20;;;;;;;16.40;72.30;101807.78;5270854;28;20553;-64
2022/05/15 07:40:44;;;;;;;20.55;10.05;;;;;;;16.55;72.44;101802.91;5268661;28;20064;-64
2022/05/15 07:43:16;;;;;;;16.20;9.52;;;;;;;16.68;69.79;101810.75;5266532;28;20020;-64
2022/05/15 07:45:47;;;;;;;16.77;9.43;;;;;;;16.79;70.00;101804.44;5268760;28;20036;-64
2022/05/15 07:48:19;;;;;;;21.70;8.93;;;;;;;17.02;69.81;101799.75;5265736;28;20040;-65
2022/05/15 07:50:52;;;;;;;15.68;9.20;;;;;;;17.07;69.48;101811.00;5265901;28;20098;-65
2022/05/15 07:53:23;;;;;;;18.60;9.95;;;;;;;17.16;69.54;101795.81;5264060;28;20035;-65
2022/05/15 07:55:55;;;;;;;18.10;8.25;;;;;;;17.55;67.25;101804.03;5265506;28;20392;-65
2022/05/15 07:58:26;;;;;;;19.55;9.65;;;;;;;17.63;67.70;101796.91;5265143;28;20735;-65
2022/05/15 08:01:02;;;;;;;21.73;9.60;;;;;;;17.63;67.69;101801.47;5263909;28;20039;-65
2022/05/15 08:03:43;;;;;;;14.75;8.75;;;;;;;17.74;66.18;101801.34;5262800;28;20555;-66
2022/05/15 08:09:07;;;;;;;17.05;8.88;;;;;;;18.21;64.02;101804.19;5264143;28;20064;-65
2022/05/15 08:11:39;;;;;;;15.70;9.02;;;;;;;18.52;63.05;101795.03;5266496;28;20036;-66
2022/05/15 08:14:10;;;;;;;16.27;8.60;;;;;;;18.41;62.83;101790.69;5261426;28;20478;-65
2022/05/15 08:16:42;;;;;;;18.40;9.13;;;;;;;18.49;64.11;101788.09;5257996;28;20108;-66
2022/05/15 08:24:53;;;;;;;13.18;8.32;;;;;;;18.95;60.80;101777.44;5263276;28;20060;-65
2022/05/15 08:27:24;;;;;;;13.05;7.90;;;;;;;19.11;59.12;101774.06;5271022;28;20553;-65
2022/05/15 08:29:55;;;;;;;16.42;8.27;;;;;;;19.24;59.66;101771.84;5270661;28;20048;-66
2022/05/15 08:32:26;;;;;;;16.33;7.10;;;;;;;19.38;59.92;101779.44;5269569;28;20398;-66
2022/05/15 08:35:00;;;;;;;16.58;8.63;;;;;;;19.52;57.84;101769.09;5266689;28;20546;-66
2022/05/15 08:37:31;;;;;;;19.48;8.18;;;;;;;19.61;56.81;101761.94;5270620;28;20368;-65
2022/05/15 08:40:03;;;;;;;17.05;7.88;;;;;;;19.76;56.73;101753.13;5269551;28;20047;-65
2022/05/15 08:42:40;;;;;;;14.52;8.23;;;;;;;19.83;57.44;101761.50;5268400;28;20094;-66
2022/05/15 08:45:14;;;;;;;17.65;8.32;;;;;;;19.97;55.57;101751.97;5269044;28;20052;-66
2022/05/15 08:47:48;;;;;;;14.45;7.20;;;;;;;20.12;55.23;101753.09;5268863;28;20063;-65
2022/05/15 08:50:23;;;;;;;14.98;7.28;;;;;;;20.09;55.33;101752.53;5266197;28;20033;-66
2022/05/15 08:52:59;;;;;;;17.00;8.20;;;;;;;20.25;53.17;101743.69;5272293;28;20028;-66
2022/05/15 08:55:48;;;;;;;19.38;7.20;;;;;;;20.43;54.69;101741.78;5272947;28;20028;-66
2022/05/15 08:58:35;;;;;;;15.57;6.80;;;;;;;20.50;53.07;101742.84;5275128;28;20040;-66
2022/05/15 09:01:10;;;;;;;13.02;7.40;;;;;;;20.54;52.71;101748.78;5277520;28;20024;-66
2022/05/15 09:03:41;;;;;;;13.77;7.47;;;;;;;20.70;51.21;101742.63;5275184;28;20601;-66
2022/05/15 09:06:30;;;;;;;15.13;6.68;;;;;;;20.88;53.42;101737.09;5274780;28;20114;-66
2022/05/15 09:09:15;;;;;;;11.52;6.95;;;;;;;20.80;52.74;101732.50;5274417;28;20143;-66
2022/05/15 09:11:56;;;;;;;19.63;7.60;;;;;;;20.81;52.67;101736.06;5276175;28;20147;-66
2022/05/15 09:14:36;;;;;;;14.50;6.22;;;;;;;21.03;49.35;101745.47;5277040;28;20129;-66
2022/05/15 09:17:30;;;;;;;10.63;5.53;;;;;;;21.14;50.63;101739.75;5272792;28;20406;-66
2022/05/15 09:20:10;;;;;;;11.30;6.10;;;;;;;21.19;47.85;101737.41;5274796;28;20051;-66
2022/05/15 09:22:47;;;;;;;13.98;5.90;;;;;;;21.17;48.64;101736.72;5275580;28;20027;-66
2022/05/15 09:25:22;;;;;;;10.93;4.80;;;;;;;21.45;48.06;101737.28;5275594;28;20381;-66
2022/05/15 09:28:03;;;;;;;13.65;6.07;;;;;;;21.49;47.44;101733.22;5274221;28;20020;-66
2022/05/15 09:30:44;;;;;;;12.95;5.55;;;;;;;21.45;48.05;101731.03;5274364;28;20498;-66
2022/05/15 09:33:24;;;;;;;11.50;4.68;;;;;;;21.82;45.76;101732.41;5274977;28;20032;-66
2022/05/15 09:36:17;;;;;;;10.25;4.65;;;;;;;21.65;47.27;101726.97;5273234;28;20090;-65
2022/05/15 09:39:07;;;;;;;14.93;5.63;;;;;;;21.72;43.85;101729.84;5274016;28;20024;-66
2022/05/15 09:44:33;;;;;;;12.10;4.53;;;;;;;21.86;44.89;101726.47;5277991;28;20028;-66
2022/05/15 09:47:10;;;;;;;10.73;4.18;;;;;;;21.79;43.85;101716.47;5276775;28;20099;-66
2022/05/15 09:49:42;;;;;;;9.65;4.45;;;;;;;22.01;42.04;101721.19;5274914;28;20194;-66
2022/05/15 09:52:21;;;;;;;8.95;3.35;;;;;;;22.15;42.84;101716.06;5277806;28;20029;-66
2022/05/15 09:55:25;;;;;;;10.88;4.10;;;;;;;22.10;43.17;101709.28;5280197;28;20390;-66
2022/05/15 09:58:00;;;;;;;10.65;3.80;;;;;;;22.49;39.33;101702.25;5274461;28;20111;-66
2022/05/15 10:00:35;;;;;;;9.90;3.90;;;;;;;22.41;41.75;101713.16;5275941;28;20436;-66
2022/05/15 10:03:25;;;;;;;9.32;4.10;;;;;;;22.50;41.08;101704.81;5279741;28;20040;-66
2022/05/15 10:06:06;;;;;;;14.93;4.88;;;;;;;22.43;40.43;101706.50;5276545;28;20039;-66
2022/05/15 10:08:38;;;;;;;9.20;3.33;;;;;;;22.41;40.06;101714.00;5279212;28;20036;-66
2022/05/15 10:11:18;;;;;;;8.95;3.60;;;;;;;22.55;39.82;101715.19;5278466;28;20090;-66
2022/05/15 10:13:53;;;;;;;9.25;3.45;;;;;;;22.57;40.87;101717.69;5277655;28;20398;-66
2022/05/15 10:16:33;;;;;;;8.60;3.55;;;;;;;22.62;39.15;101710.72;5279543;28;20498;-67
2022/05/15 10:19:21;;;;;;;10.02;2.92;;;;;;;22.75;38.77;101699.28;5279915;28;20056;-66
2022/05/15 10:22:03;;;;;;;7.22;3.30;;;;;;;22.88;37.56;101705.00;5278702;28;20028;-66
2022/05/15 10:24:41;;;;;;;9.25;3.50;;;;;;;22.87;37.70;101700.56;5269627;28;20580;-67
2022/05/15 10:27:20;;;;;;;9.18;3.90;;;;;;;22.95;37.44;101691.50;5278451;28;20025;-66
2022/05/15 10:30:11;;;;;;;8.45;3.05;;;;;;;22.94;40.46;101700.72;5278614;28;20490;-67
2022/05/15 10:32:53;;;;;;;11.45;3.20;;;;;;;22.91;40.17;101692.91;5276643;28;20035;-67
2022/05/15 10:35:35;;;;;;;9.95;3.50;;;;;;;23.24;38.37;101690.00;5277542;28;20029;-66
2022/05/15 10:38:32;;;;;;;13.40;3.28;;;;;;;23.34;36.84;101690.63;5277242;28;20059;-66
2022/05/15 10:41:24;;;;;;;10.15;2.90;;;;;;;23.21;38.42;101682.22;5271220;28;20036;-67
2022/05/15 10:44:05;;;;;;;9.68;3.15;;;;;;;23.23;36.28;101681.00;5279387;28;20528;-66
2022/05/15 10:47:18;;;;;;;9.00;3.70;;;;;;;23.13;38.56;101677.66;5275131;28;20058;-67
2022/05/15 10:50:18;;;;;;;10.40;4.00;;;;;;;23.10;38.98;101673.41;5242986;28;20048;-66
2022/05/15 10:59:53;;;;;;;10.15;3.38;;;;;;;23.32;40.79;101670.91;5274145;28;20036;-67
2022/05/15 11:02:43;;;;;;;12.20;4.32;;;;;;;23.40;37.88;101670.00;5278412;28;20056;-67
2022/05/15 11:05:28;;;;;;;12.60;4.20;;;;;;;23.42;38.76;101676.09;5279049;28;20079;-67
2022/05/15 11:08:30;;;;;;;8.50;3.38;;;;;;;23.39;38.89;101668.28;5277313;28;20492;-67
2022/05/15 11:11:14;;;;;;;10.10;3.35;;;;;;;23.54;36.87;101671.91;5275486;28;20035;-66
2022/05/15 11:13:57;;;;;;;9.50;4.07;;;;;;;23.57;35.16;101677.00;5278561;28;20039;-67
2022/05/15 11:17:00;;;;;;;10.13;3.47;;;;;;;23.72;38.13;101660.72;5276077;28;20036;-67
2022/05/15 11:19:40;;;;;;;9.32;3.33;;;;;;;23.87;36.97;101656.16;5277999;28;20052;-67
2022/05/15 11:22:25;;;;;;;9.52;3.05;;;;;;;23.79;36.81;101649.94;5278538;28;20028;-66
2022/05/15 11:25:00;;;;;;;9.48;3.30;;;;;;;23.97;35.90;101646.84;5277429;28;20111;-66
2022/05/15 11:27:51;;;;;;;8.73;3.25;;;;;;;23.88;35.88;101640.66;5275023;28;20029;-67
2022/05/15 11:30:30;;;;;;;9.23;3.20;;;;;;;23.89;33.71;101639.59;5273183;28;20530;-67
2022/05/15 11:33:08;;;;;;;7.93;3.00;;;;;;;23.84;34.79;101628.44;5278278;28;20028;-67
2022/05/15 11:36:00;;;;;;;12.32;3.30;;;;;;;23.93;34.07;101621.84;5271897;28;20386;-67
2022/05/15 11:38:46;;;;;;;7.45;2.67;;;;;;;23.87;35.35;101620.72;5276680;28;20041;-67
2022/05/15 11:41:36;;;;;;;7.93;2.97;;;;;;;24.00;35.17;101622.78;5292673;28;20036;-67
2022/05/15 11:44:21;;;;;;;7.18;2.85;;;;;;;23.84;36.27;101612.91;5272972;28;20039;-67
2022/05/15 11:47:01;;;;;;;7.90;3.60;;;;;;;23.98;33.40;101611.22;5272437;28;20036;-67
2022/05/15 11:49:38;;;;;;;9.70;2.78;;;;;;;24.05;33.61;101606.72;5269880;28;20036;-67
2022/05/15 11:52:11;;;;;;;9.88;3.13;;;;;;;24.31;34.82;101604.53;5275959;28;20024;-66
2022/05/15 11:54:46;;;;;;;8.98;2.97;;;;;;;24.00;34.50;101605.59;5277537;28;20032;-67
2022/05/15 11:57:45;;;;;;;8.40;2.70;;;;;;;24.27;33.80;101601.34;5276572;28;20032;-66
2022/05/15 12:00:25;;;;;;;6.60;2.50;;;;;;;24.18;34.02;101600.63;5267707;28;20131;-66
2022/05/15 12:02:58;;;;;;;8.38;3.10;;;;;;;24.24;33.93;101590.84;5274001;28;20068;-67
2022/05/15 12:05:38;;;;;;;9.65;2.88;;;;;;;24.26;34.99;101589.59;5274195;28;20028;-67
2022/05/15 12:08:32;;;;;;;7.20;2.90;;;;;;;24.34;34.47;101585.94;5275323;28;20078;-67
2022/05/15 12:11:12;;;;;;;;;;;;;;;24.33;35.40;101592.41;5277958;28;20048;-67
2022/05/15 12:13:46;;;;;;;10.70;3.90;;;;;;;24.60;32.50;101599.09;5276093;28;19913;-67
2022/05/15 12:16:25;;;;;;;8.93;3.28;;;;;;;24.44;30.82;101583.72;5275977;28;20518;-67
2022/05/15 12:19:02;;;;;;;11.45;3.47;;;;;;;24.32;32.83;101593.44;5281616;28;20047;-67